createdAt,value
2018-01-15T00:00:09.573Z,5.76
2018-01-15T00:02:47.229Z,5.60
2018-01-15T00:05:26.451Z,5.74
2018-01-15T00:07:59.694Z,5.55
2018-01-15T00:10:35.277Z,5.65
2018-01-15T00:13:07.033Z,5.65
2018-01-15T00:15:41.524Z,5.56
2018-01-15T00:18:14.671Z,5.43
2018-01-15T00:20:52.841Z,5.52
2018-01-15T00:23:33.687Z,5.50
2018-01-15T00:26:06.768Z,5.58
2018-01-15T00:28:48.297Z,5.67
2018-01-15T00:31:20.471Z,5.68
2018-01-15T00:33:53.681Z,5.67
2018-01-15T00:36:24.161Z,5.56
2018-01-15T00:38:55.531Z,5.57
2018-01-15T00:41:30.448Z,5.61
2018-01-15T00:44:02.077Z,5.48
2018-01-15T00:46:34.585Z,5.58
2018-01-15T00:49:05.570Z,5.68
2018-01-15T00:51:37.766Z,5.74
2018-01-15T00:54:11.966Z,5.69
2018-01-15T00:56:42.790Z,5.55
2018-01-15T00:59:13.862Z,5.68
2018-01-15T01:01:44.363Z,5.68
2018-01-15T01:04:14.913Z,5.70
2018-01-15T01:06:45.411Z,5.65
2018-01-15T01:09:15.897Z,5.63
2018-01-15T01:11:48.358Z,5.52
2018-01-15T01:14:18.652Z,5.45
2018-01-15T01:16:48.946Z,5.45
2018-01-15T01:19:19.178Z,5.43
2018-01-15T01:21:49.615Z,5.39
2018-01-15T01:24:20.121Z,5.30
2018-01-15T01:26:50.417Z,5.40
2018-01-15T01:29:21.321Z,5.44
2018-01-15T01:31:52.993Z,5.57
2018-01-15T01:34:23.206Z,5.40
2018-01-15T01:36:54.584Z,5.45
2018-01-15T01:39:28.021Z,5.30
2018-01-15T01:41:59.911Z,5.47
2018-01-15T01:44:30.814Z,5.45
2018-01-15T01:47:02.813Z,5.45
2018-01-15T01:49:33.066Z,5.45
2018-01-15T01:52:07.229Z,5.30
2018-01-15T01:54:43.092Z,5.47
2018-01-15T01:57:13.963Z,5.58
2018-01-15T01:59:44.309Z,5.45
2018-01-15T02:02:15.841Z,5.46
2018-01-15T02:04:46.847Z,5.64
2018-01-15T02:07:17.258Z,5.62
2018-01-15T02:09:50.712Z,5.64
2018-01-15T02:12:21.069Z,5.74
2018-01-15T02:14:52.981Z,5.77
2018-01-15T02:17:24.029Z,5.74
2018-01-15T02:19:55.606Z,5.85
2018-01-15T02:22:31.308Z,5.61
2018-01-15T02:25:01.938Z,5.96
2018-01-15T02:27:32.418Z,5.94
2018-01-15T02:30:04.898Z,5.95
2018-01-15T02:32:36.114Z,6.05
2018-01-15T02:35:06.978Z,5.90
2018-01-15T02:37:37.905Z,5.95
2018-01-15T02:40:08.947Z,6.08
2018-01-15T02:42:39.804Z,6.19
2018-01-15T02:45:14.619Z,6.25
2018-01-15T02:47:45.494Z,6.30
2018-01-15T02:50:16.052Z,6.18
2018-01-15T02:52:46.348Z,6.25
2018-01-15T02:55:16.666Z,6.28
2018-01-15T02:57:47.510Z,6.39
2018-01-15T03:00:19.689Z,6.38
2018-01-15T03:02:51.230Z,6.38
2018-01-15T03:05:22.600Z,6.42
2018-01-15T03:07:56.300Z,6.44
2018-01-15T03:10:27.199Z,6.37
2018-01-15T03:12:58.711Z,6.41
2018-01-15T03:15:29.342Z,6.12
2018-01-15T03:18:00.636Z,6.20
2018-01-15T03:20:34.780Z,6.42
2018-01-15T03:23:07.333Z,6.28
2018-01-15T03:25:39.656Z,6.42
2018-01-15T03:28:12.566Z,6.12
2018-01-15T03:30:44.403Z,6.30
2018-01-15T03:33:15.265Z,6.28
2018-01-15T03:35:46.588Z,6.17
2018-01-15T03:38:17.148Z,6.42
2018-01-15T03:40:47.863Z,6.63
2018-01-15T03:43:18.252Z,6.68
2018-01-15T03:45:49.363Z,6.68
2018-01-15T03:48:19.779Z,6.56
2018-01-15T03:50:50.496Z,6.72
2018-01-15T03:53:21.323Z,6.48
2018-01-15T03:55:51.989Z,6.44
2018-01-15T03:58:23.187Z,6.65
2018-01-15T04:00:54.118Z,6.57
2018-01-15T04:03:25.495Z,6.61
2018-01-15T04:05:56.947Z,6.80
2018-01-15T04:08:28.422Z,6.92
2018-01-15T04:10:58.842Z,7.02
2018-01-15T04:13:29.687Z,7.06
2018-01-15T04:16:00.993Z,7.17
2018-01-15T04:18:32.680Z,7.18
2018-01-15T04:21:03.454Z,6.90
2018-01-15T04:23:33.766Z,6.74
2018-01-15T04:26:04.430Z,6.73
2018-01-15T04:28:35.098Z,6.81
2018-01-15T04:31:05.613Z,6.73
2018-01-15T04:33:35.945Z,6.66
2018-01-15T04:36:06.674Z,6.84
2018-01-15T04:38:37.142Z,6.69
2018-01-15T04:41:08.198Z,6.79
2018-01-15T04:43:39.635Z,6.78
2018-01-15T04:46:10.415Z,6.79
2018-01-15T04:48:41.110Z,6.79
2018-01-15T04:51:11.847Z,6.27
2018-01-15T04:53:42.143Z,6.70
2018-01-15T04:56:16.664Z,7.00
2018-01-15T04:58:48.807Z,6.99
2018-01-15T05:01:19.874Z,6.39
2018-01-15T05:03:51.749Z,6.63
2018-01-15T05:06:22.204Z,5.94
2018-01-15T05:08:53.384Z,6.30
2018-01-15T05:11:24.233Z,6.30
2018-01-15T05:13:54.405Z,6.36
2018-01-15T05:16:25.030Z,6.80
2018-01-15T05:18:56.018Z,6.82
2018-01-15T05:21:26.328Z,6.39
2018-01-15T05:23:56.719Z,6.36
2018-01-15T05:26:27.413Z,6.62
2018-01-15T05:28:57.665Z,6.77
2018-01-15T05:31:29.455Z,6.35
2018-01-15T05:33:59.923Z,6.67
2018-01-15T05:36:32.300Z,7.00
2018-01-15T05:39:02.989Z,7.10
2018-01-15T05:41:33.232Z,7.28
2018-01-15T05:44:04.528Z,7.18
2018-01-15T05:46:35.269Z,6.99
2018-01-15T05:49:06.429Z,7.12
2018-01-15T05:51:36.753Z,7.08
2018-01-15T05:54:07.445Z,7.01
2018-01-15T05:56:37.688Z,7.02
2018-01-15T05:59:10.132Z,7.10
2018-01-15T06:01:41.787Z,7.04
2018-01-15T06:04:13.511Z,7.09
2018-01-15T06:09:15.310Z,7.09
2018-01-15T06:11:46.964Z,6.93
2018-01-15T06:14:18.243Z,6.99
2018-01-15T06:16:48.845Z,6.86
2018-01-15T06:19:19.156Z,6.56
2018-01-15T06:21:51.046Z,6.58
2018-01-15T06:24:22.002Z,6.24
2018-01-15T06:26:56.636Z,6.27
2018-01-15T06:29:27.540Z,6.22
2018-01-15T06:31:58.900Z,6.02
2018-01-15T06:34:29.515Z,6.21
2018-01-15T06:37:01.474Z,6.28
2018-01-15T06:39:31.865Z,6.09
2018-01-15T06:42:03.563Z,6.15
2018-01-15T06:44:37.027Z,6.08
2018-01-15T06:47:08.845Z,6.29
2018-01-15T06:49:39.989Z,6.34
2018-01-15T06:52:19.187Z,6.31
2018-01-15T06:55:12.032Z,6.28
2018-01-15T06:57:47.915Z,6.15
2018-01-15T07:00:24.230Z,5.96
2018-01-15T07:02:58.009Z,6.01
2018-01-15T07:05:31.489Z,6.21
2018-01-15T07:08:03.823Z,5.88
2018-01-15T07:10:37.205Z,6.04
2018-01-15T07:13:15.898Z,6.19
2018-01-15T07:15:49.652Z,5.79
2018-01-15T07:18:23.953Z,5.97
2018-01-15T07:20:55.264Z,6.08
2018-01-15T07:23:26.962Z,6.29
2018-01-15T07:25:58.061Z,6.12
2018-01-15T07:28:28.370Z,6.03
2018-01-15T07:30:58.792Z,6.38
2018-01-15T07:33:32.456Z,6.46
2018-01-15T07:36:04.820Z,6.50
2018-01-15T07:38:37.528Z,6.46
2018-01-15T07:41:08.400Z,6.48
2018-01-15T07:43:39.348Z,6.52
2018-01-15T07:46:09.954Z,6.48
2018-01-15T07:48:41.180Z,6.67
2018-01-15T07:51:11.837Z,6.65
2018-01-15T07:53:56.356Z,6.53
2018-01-15T07:56:27.507Z,6.56
2018-01-15T07:59:01.115Z,6.34
2018-01-15T08:01:32.545Z,6.43
2018-01-15T08:04:04.867Z,6.44
2018-01-15T08:06:36.337Z,6.46
2018-01-15T08:09:07.028Z,6.63
2018-01-15T08:11:37.251Z,6.59
2018-01-15T08:14:07.866Z,6.80
2018-01-15T08:16:38.897Z,6.55
2018-01-15T08:19:09.266Z,6.73
2018-01-15T08:21:39.922Z,6.72
2018-01-15T08:24:10.798Z,6.94
2018-01-15T08:26:41.870Z,6.14
2018-01-15T08:29:12.619Z,6.98
2018-01-15T08:31:43.089Z,7.07
2018-01-15T08:34:13.833Z,7.09
2018-01-15T08:36:44.367Z,7.24
2018-01-15T08:39:15.114Z,7.31
2018-01-15T08:41:46.513Z,7.08
2018-01-15T08:44:18.145Z,7.12
2018-01-15T08:46:50.094Z,7.25
2018-01-15T08:49:28.630Z,7.44
2018-01-15T08:51:59.608Z,7.36
2018-01-15T08:54:30.676Z,7.20
2018-01-15T08:57:00.995Z,7.38
2018-01-15T08:59:32.534Z,7.53
2018-01-15T09:04:43.406Z,7.31
2018-01-15T09:07:15.201Z,7.54
2018-01-15T09:09:46.417Z,7.40
2018-01-15T09:12:18.533Z,7.42
2018-01-15T09:14:50.432Z,7.72
2018-01-15T09:17:22.215Z,7.73
2018-01-15T09:19:52.773Z,7.83
2018-01-15T09:22:24.013Z,7.99
2018-01-15T09:24:55.493Z,7.91
2018-01-15T09:27:26.658Z,8.08
2018-01-15T09:29:58.279Z,8.16
2018-01-15T09:32:29.231Z,8.51
2018-01-15T09:35:01.446Z,8.56
2018-01-15T09:37:32.761Z,8.53
2018-01-15T09:40:10.958Z,9.10
2018-01-15T09:42:44.798Z,8.51
2018-01-15T09:45:23.410Z,9.15
2018-01-15T09:47:54.569Z,8.68
2018-01-15T09:50:27.727Z,8.72
2018-01-15T09:53:02.499Z,8.84
2018-01-15T09:55:36.487Z,8.81
2018-01-15T09:58:10.118Z,9.57
2018-01-15T10:00:41.908Z,10.50
2018-01-15T10:03:13.217Z,11.31
2018-01-15T10:05:47.298Z,11.53
2018-01-15T10:08:19.926Z,10.04
2018-01-15T10:13:21.514Z,9.96
2018-01-15T10:15:53.874Z,9.22
2018-01-15T10:18:26.130Z,9.30
2018-01-15T10:20:58.401Z,9.09
2018-01-15T10:23:30.551Z,9.18
2018-01-15T10:26:01.153Z,8.87
2018-01-15T10:28:32.024Z,8.79
2018-01-15T10:31:05.758Z,9.35
2018-01-15T10:33:36.915Z,8.48
2018-01-15T10:36:13.068Z,8.82
2018-01-15T10:38:45.650Z,9.33
2018-01-15T10:41:16.558Z,9.00
2018-01-15T10:43:49.319Z,8.95
2018-01-15T10:46:23.791Z,8.81
2018-01-15T10:48:59.457Z,9.08
2018-01-15T10:51:32.387Z,8.64
2018-01-15T10:54:04.182Z,8.64
2018-01-15T10:56:34.556Z,9.02
2018-01-15T10:59:06.470Z,8.95
2018-01-15T11:01:37.596Z,8.39
2018-01-15T11:04:08.965Z,8.92
2018-01-15T11:06:39.393Z,8.31
2018-01-15T11:09:11.504Z,8.75
2018-01-15T11:11:47.376Z,9.16
2018-01-15T11:14:24.863Z,9.36
2018-01-15T11:16:57.276Z,9.25
2018-01-15T11:19:31.690Z,9.48
2018-01-15T11:22:04.991Z,9.19
2018-01-15T11:24:36.449Z,9.57
2018-01-15T11:27:08.228Z,9.42
2018-01-15T11:29:40.446Z,9.52
2018-01-15T11:32:12.786Z,9.39
2018-01-15T11:34:46.157Z,8.73
2018-01-15T11:37:21.081Z,8.92
2018-01-15T11:42:22.603Z,8.92
2018-01-15T11:44:53.934Z,8.97
2018-01-15T11:47:24.721Z,9.00
2018-01-15T11:49:55.777Z,8.80
2018-01-15T11:52:28.637Z,8.73
2018-01-15T11:55:02.716Z,8.85
2018-01-15T11:57:33.967Z,9.03
2018-01-15T12:00:10.667Z,8.93
2018-01-15T12:02:46.756Z,8.83
2018-01-15T12:05:18.112Z,8.97
2018-01-15T12:07:55.671Z,8.99
2018-01-15T12:10:26.031Z,8.89
2018-01-15T12:12:57.450Z,9.22
2018-01-15T12:15:32.977Z,8.65
2018-01-15T12:18:05.693Z,8.88
2018-01-15T12:20:38.759Z,8.92
2018-01-15T12:29:27.241Z,8.51
2018-01-15T12:31:59.026Z,8.53
2018-01-15T12:34:29.276Z,8.50
2018-01-15T12:37:00.320Z,8.74
2018-01-15T12:39:30.784Z,8.59
2018-01-15T12:42:01.327Z,8.99
2018-01-15T12:44:32.265Z,8.98
2018-01-15T12:47:08.897Z,9.00
2018-01-15T12:49:41.067Z,8.76
2018-01-15T12:52:15.798Z,9.02
2018-01-15T12:54:47.696Z,8.79
2018-01-15T12:57:21.934Z,8.75
2018-01-15T12:59:54.628Z,8.50
2018-01-15T13:02:26.021Z,8.93
2018-01-15T13:05:06.631Z,9.07
2018-01-15T13:07:46.141Z,8.93
2018-01-15T13:10:19.917Z,9.17
2018-01-15T13:12:53.316Z,9.24
2018-01-15T13:15:24.928Z,8.93
2018-01-15T13:17:59.714Z,9.21
2018-01-15T13:20:30.680Z,9.29
2018-01-15T13:23:03.376Z,8.39
2018-01-15T13:25:38.301Z,8.54
2018-01-15T13:28:08.538Z,8.57
2018-01-15T13:30:40.986Z,8.61
2018-01-15T13:33:13.994Z,8.72
2018-01-15T13:35:45.531Z,8.27
2018-01-15T13:38:16.524Z,8.58
2018-01-15T13:40:50.671Z,8.56
2018-01-15T13:43:21.778Z,8.64
2018-01-15T13:45:53.923Z,8.53
2018-01-15T13:48:24.172Z,8.61
2018-01-15T13:50:57.671Z,8.60
2018-01-15T13:53:31.686Z,8.51
2018-01-15T13:56:10.348Z,8.62
2018-01-15T13:58:41.505Z,8.27
2018-01-15T14:01:12.686Z,8.20
2018-01-15T14:03:43.937Z,8.21
2018-01-15T14:06:28.859Z,8.20
2018-01-15T14:08:59.831Z,8.20
2018-01-15T14:11:32.109Z,7.91
2018-01-15T14:14:04.456Z,8.40
2018-01-15T14:16:36.286Z,8.54
2018-01-15T14:19:10.374Z,8.09
2018-01-15T14:21:43.538Z,7.97
2018-01-15T14:24:15.093Z,8.44
2018-01-15T14:26:48.551Z,8.51
2018-01-15T14:29:22.100Z,8.78
2018-01-15T14:31:55.450Z,8.57
2018-01-15T14:34:29.542Z,8.47
2018-01-15T14:37:01.452Z,8.38
2018-01-15T14:39:38.735Z,8.75
2018-01-15T14:42:11.479Z,8.27
2018-01-15T14:44:43.710Z,8.04
2018-01-15T14:47:17.009Z,8.24
2018-01-15T14:49:53.086Z,8.56
2018-01-15T14:52:23.881Z,8.42
2018-01-15T14:54:56.206Z,8.68
2018-01-15T14:57:28.208Z,8.54
2018-01-15T15:00:00.408Z,8.52
2018-01-15T15:02:36.089Z,8.43
2018-01-15T15:05:11.061Z,8.29
2018-01-15T15:07:41.617Z,8.52
2018-01-15T15:10:12.843Z,8.22
2018-01-15T15:12:47.454Z,8.45
2018-01-15T15:15:19.794Z,8.43
2018-01-15T15:17:52.331Z,8.53
2018-01-15T15:20:27.272Z,8.78
2018-01-15T15:22:58.671Z,8.93
2018-01-15T15:25:35.513Z,8.84
2018-01-15T15:28:07.049Z,8.76
2018-01-15T15:30:42.264Z,8.54
2018-01-15T15:33:15.630Z,8.49
2018-01-15T15:35:51.970Z,8.83
2018-01-15T15:38:23.353Z,8.37
2018-01-15T15:40:56.837Z,8.37
2018-01-15T15:43:28.468Z,8.59
2018-01-15T15:46:00.620Z,8.54
2018-01-15T15:48:32.980Z,8.87
2018-01-15T15:51:06.041Z,8.96
2018-01-15T15:53:39.783Z,8.89
2018-01-15T15:56:13.831Z,8.78
2018-01-15T15:58:52.541Z,8.64
2018-01-15T16:01:24.868Z,8.84
2018-01-15T16:03:57.863Z,8.40
2018-01-15T16:06:42.314Z,8.55
2018-01-15T16:09:13.048Z,8.81
2018-01-15T16:11:45.685Z,8.72
2018-01-15T16:14:17.327Z,8.63
2018-01-15T16:16:52.776Z,8.47
2018-01-15T16:19:23.910Z,8.53
2018-01-15T16:22:04.288Z,8.63
2018-01-15T16:24:35.933Z,8.75
2018-01-15T16:27:19.923Z,8.85
2018-01-15T16:29:52.109Z,8.24
2018-01-15T16:32:24.038Z,8.38
2018-01-15T16:34:56.387Z,8.39
2018-01-15T16:37:27.008Z,7.97
2018-01-15T16:39:58.104Z,7.95
2018-01-15T16:42:29.214Z,7.78
2018-01-15T16:45:00.723Z,7.70
2018-01-15T16:47:36.637Z,7.81
2018-01-15T16:50:12.969Z,7.73
2018-01-15T16:52:45.523Z,7.81
2018-01-15T16:55:17.041Z,7.64
2018-01-15T16:57:48.869Z,7.77
2018-01-15T17:00:22.648Z,7.52
2018-01-15T17:02:54.865Z,7.58
2018-01-15T17:05:28.534Z,7.66
2018-01-15T17:08:00.533Z,7.63
2018-01-15T17:10:31.860Z,7.59
2018-01-15T17:13:05.787Z,7.78
2018-01-15T17:15:41.654Z,7.52
2018-01-15T17:18:22.662Z,7.50
2018-01-15T17:20:53.627Z,7.52
2018-01-15T17:23:24.725Z,7.55
2018-01-15T17:25:55.678Z,7.42
2018-01-15T17:28:26.844Z,7.66
2018-01-15T17:30:59.245Z,7.73
2018-01-15T17:33:31.882Z,7.43
2018-01-15T17:36:02.812Z,7.48
2018-01-15T17:38:36.679Z,7.47
2018-01-15T17:41:18.261Z,7.35
2018-01-15T17:43:55.646Z,7.36
2018-01-15T17:46:29.294Z,7.55
2018-01-15T17:49:04.587Z,7.38
2018-01-15T17:51:38.552Z,7.40
2018-01-15T17:54:12.366Z,7.54
2018-01-15T17:56:48.130Z,7.52
2018-01-15T17:59:20.021Z,7.75
2018-01-15T18:01:56.743Z,7.85
2018-01-15T18:04:34.441Z,7.44
2018-01-15T18:07:07.859Z,7.55
2018-01-15T18:12:33.945Z,7.56
2018-01-15T18:15:19.464Z,7.58
2018-01-15T18:18:00.168Z,7.63
2018-01-15T18:20:33.222Z,7.81
2018-01-15T18:23:11.412Z,7.83
2018-01-15T18:25:42.580Z,7.73
2018-01-15T18:28:18.294Z,7.84
2018-01-15T18:30:53.794Z,7.80
2018-01-15T18:33:29.361Z,7.90
2018-01-15T18:36:03.122Z,7.83
2018-01-15T18:38:41.273Z,7.74
2018-01-15T18:41:16.341Z,7.71
2018-01-15T18:43:48.778Z,7.78
2018-01-15T18:46:27.517Z,7.72
2018-01-15T18:49:04.200Z,7.81
2018-01-15T18:51:39.285Z,7.87
2018-01-15T18:54:11.141Z,7.83
2018-01-15T18:59:21.417Z,7.80
2018-01-15T19:01:52.664Z,7.91
2018-01-15T19:04:24.050Z,7.86
2018-01-15T19:06:56.242Z,7.81
2018-01-15T19:09:29.710Z,7.80
2018-01-15T19:12:06.778Z,7.96
2018-01-15T19:14:42.637Z,7.92
2018-01-15T19:17:17.304Z,7.60
2018-01-15T19:19:52.852Z,7.93
2018-01-15T19:22:24.919Z,7.95
2018-01-15T19:24:57.363Z,8.19
2018-01-15T19:27:28.798Z,8.15
2018-01-15T19:30:03.447Z,7.97
2018-01-15T19:32:38.483Z,8.20
2018-01-15T19:35:12.623Z,8.17
2018-01-15T19:37:54.050Z,8.05
2018-01-15T19:40:27.043Z,8.21
2018-01-15T19:43:04.215Z,8.18
2018-01-15T19:47:45.878Z,8.12
2018-01-15T19:50:22.708Z,8.26
2018-01-15T19:55:07.008Z,8.13
2018-01-15T19:57:56.444Z,8.47
2018-01-15T20:02:36.823Z,8.30
2018-01-15T20:07:22.887Z,8.41
2018-01-15T20:10:57.897Z,8.21
2018-01-15T20:13:35.934Z,8.52
2018-01-15T20:16:14.846Z,8.50
2018-01-15T20:18:50.526Z,8.39
2018-01-15T20:21:29.975Z,8.68
2018-01-15T20:24:04.171Z,8.62
2018-01-15T20:26:39.813Z,8.56
2018-01-15T20:29:22.740Z,8.68
2018-01-15T20:31:56.837Z,8.92
2018-01-15T20:34:34.344Z,8.81
2018-01-15T20:37:10.887Z,8.73
2018-01-15T20:40:04.281Z,8.97
2018-01-15T20:42:42.634Z,8.65
2018-01-15T20:45:23.419Z,8.76
2018-01-15T20:47:59.926Z,8.70
2018-01-15T20:50:34.229Z,8.65
2018-01-15T20:53:10.618Z,8.44
2018-01-15T20:56:10.783Z,8.62
2018-01-15T20:58:50.194Z,8.73
2018-01-15T21:01:26.923Z,8.79
2018-01-15T21:04:07.673Z,9.05
2018-01-15T21:06:44.350Z,9.20
2018-01-15T21:09:18.932Z,9.04
2018-01-15T21:11:52.903Z,8.65
2018-01-15T21:14:28.890Z,8.72
2018-01-15T21:17:04.495Z,8.93
2018-01-15T21:19:36.025Z,9.08
2018-01-15T21:22:08.638Z,9.16
2018-01-15T21:24:43.543Z,9.32
2018-01-15T21:27:20.210Z,9.30
2018-01-15T21:29:54.202Z,9.32
2018-01-15T21:32:43.382Z,9.44
2018-01-15T21:35:17.355Z,9.63
2018-01-15T21:37:52.138Z,9.43
2018-01-15T21:40:25.341Z,9.59
2018-01-15T21:42:58.817Z,9.49
2018-01-15T21:45:32.115Z,9.70
2018-01-15T21:48:05.225Z,9.65
2018-01-15T21:50:38.860Z,9.71
2018-01-15T21:53:11.270Z,9.83
2018-01-15T21:55:57.910Z,9.85
2018-01-15T21:58:30.198Z,9.84
2018-01-15T22:01:03.259Z,9.84
2018-01-15T22:03:35.165Z,9.69
2018-01-15T22:06:07.578Z,9.75
2018-01-15T22:08:41.828Z,10.00
2018-01-15T22:11:13.416Z,10.06
2018-01-15T22:13:46.773Z,10.14
2018-01-15T22:16:22.278Z,10.28
2018-01-15T22:18:56.962Z,10.28
2018-01-15T22:21:28.650Z,10.39
2018-01-15T22:24:04.203Z,10.50
2018-01-15T22:26:34.709Z,10.57
2018-01-15T22:29:07.483Z,10.57
2018-01-15T22:31:41.256Z,10.64
2018-01-15T22:34:12.706Z,10.66
2018-01-15T22:36:44.220Z,10.61
2018-01-15T22:39:19.909Z,10.37
2018-01-15T22:41:50.619Z,9.91
2018-01-15T22:44:21.969Z,9.65
2018-01-15T22:46:54.474Z,9.58
2018-01-15T22:49:28.622Z,9.49
2018-01-15T22:52:05.275Z,9.55
2018-01-15T22:54:39.718Z,9.41
2018-01-15T22:57:24.801Z,9.63
2018-01-15T22:59:59.813Z,9.66
2018-01-15T23:02:36.115Z,9.59
2018-01-15T23:05:09.453Z,9.66
2018-01-15T23:07:46.022Z,9.65
2018-01-15T23:10:18.522Z,9.73
2018-01-15T23:12:54.723Z,9.71
2018-01-15T23:15:28.947Z,9.84
2018-01-15T23:18:03.589Z,9.72
2018-01-15T23:20:39.117Z,9.76
2018-01-15T23:23:11.685Z,9.79
2018-01-15T23:25:43.186Z,9.81
2018-01-15T23:28:16.839Z,9.85
2018-01-15T23:30:48.556Z,9.77
2018-01-15T23:33:21.552Z,9.74
2018-01-15T23:35:55.758Z,9.73
2018-01-15T23:38:29.014Z,9.73
2018-01-15T23:41:00.845Z,9.73
2018-01-15T23:43:32.174Z,9.82
2018-01-15T23:46:05.866Z,9.74
2018-01-15T23:48:39.206Z,9.90
2018-01-15T23:51:14.138Z,9.84
2018-01-15T23:53:45.556Z,9.77
2018-01-15T23:56:16.347Z,9.72
2018-01-15T23:58:46.609Z,9.71
